Terminal Aerodrome Forecast
Issued by NWS

Home | Current Version | Previous Version | Graphics & Text | Print | Product List | Glossary On
Versions: 1 2 3 4 5 6 7 8 9 10 11 12 13 14 15 16
000
FTUS43 KMPX 211100 RRA
TAFAXN
TAF
KAXN 211139Z 2112/2212 30010KT P6SM SCT008 BKN025
      TEMPO 2112/2115 BKN008
     FM211600 33014G21KT P6SM SCT025 BKN050
     FM211900 34013G19KT P6SM SCT070
     FM212200 33008KT P6SM FEW090
     FM220200 VRB02KT P6SM SKC=

USA.gov is the U.S. government's official web portal to all federal, state and local government web resources and services.